Morrilton, Arkansas
Current Conditions -  °F | °C
As of 12:53 AM on Monday 24 Nov 2014 (Local Time) from KRUE Reporting Station
Overcast Overcast  
Wind Chill: 50°   Ceiling: 3500
Heat Index: 50°   Visibility: 10mi
Dew Point: 42°   Wind: 15mph
Humidity: 74%   Direction: 280°W
Pressure: 29.54"   Gusts: 24mph
Location:  35.15°N, 92.74°W
Report Text: KRUE 240653Z AUTO 28013G21KT 10SM SCT028 BKN035 OVC044 10/06 A2954 RMK AO2 PK WND 28029/0609 SLP998 T01000056
Loading
Personal Weather Stations






























Interactive Weather Map New forecast layout! Learn more

10-Day Weather Forecast

Advertisements
Track Severe Weather on mobile